sensor_id;sensor_type;location;lat;lon;timestamp;P1;durP1;ratioP1;P2;durP2;ratioP2
17482;SDS011;8858;52.308;20.994;2023-04-23T00:01:47;22.73;;;15.10;;
17482;SDS011;8858;52.308;20.994;2023-04-23T00:04:15;23.10;;;16.63;;
17482;SDS011;8858;52.308;20.994;2023-04-23T00:06:47;21.63;;;15.73;;
17482;SDS011;8858;52.308;20.994;2023-04-23T00:09:41;22.03;;;15.27;;
17482;SDS011;8858;52.308;20.994;2023-04-23T00:12:12;24.63;;;16.13;;
17482;SDS011;8858;52.308;20.994;2023-04-23T00:14:41;24.53;;;15.50;;
17482;SDS011;8858;52.308;20.994;2023-04-23T00:17:10;20.13;;;15.47;;
17482;SDS011;8858;52.308;20.994;2023-04-23T00:19:38;24.73;;;15.70;;
17482;SDS011;8858;52.308;20.994;2023-04-23T00:22:07;20.30;;;15.97;;
17482;SDS011;8858;52.308;20.994;2023-04-23T00:24:36;23.07;;;16.37;;
17482;SDS011;8858;52.308;20.994;2023-04-23T00:27:06;23.63;;;16.00;;
17482;SDS011;8858;52.308;20.994;2023-04-23T00:29:35;21.97;;;15.90;;
17482;SDS011;8858;52.308;20.994;2023-04-23T00:32:06;21.83;;;16.60;;
17482;SDS011;8858;52.308;20.994;2023-04-23T00:34:36;24.43;;;16.87;;
17482;SDS011;8858;52.308;20.994;2023-04-23T00:37:08;23.40;;;17.00;;
17482;SDS011;8858;52.308;20.994;2023-04-23T00:39:37;20.63;;;15.97;;
17482;SDS011;8858;52.308;20.994;2023-04-23T00:42:07;21.00;;;16.67;;
17482;SDS011;8858;52.308;20.994;2023-04-23T00:44:38;22.70;;;15.83;;
17482;SDS011;8858;52.308;20.994;2023-04-23T00:47:08;21.90;;;16.57;;
17482;SDS011;8858;52.308;20.994;2023-04-23T00:49:38;22.47;;;16.17;;
17482;SDS011;8858;52.308;20.994;2023-04-23T00:52:08;21.67;;;16.67;;
17482;SDS011;8858;52.308;20.994;2023-04-23T00:54:36;29.13;;;22.13;;
17482;SDS011;8858;52.308;20.994;2023-04-23T00:57:05;30.53;;;21.80;;
17482;SDS011;8858;52.308;20.994;2023-04-23T00:59:35;24.97;;;18.60;;
17482;SDS011;8858;52.308;20.994;2023-04-23T01:02:05;24.00;;;17.33;;
17482;SDS011;8858;52.308;20.994;2023-04-23T01:04:34;31.53;;;20.20;;
17482;SDS011;8858;52.308;20.994;2023-04-23T01:07:04;29.27;;;20.27;;
17482;SDS011;8858;52.308;20.994;2023-04-23T01:09:32;25.70;;;18.03;;
17482;SDS011;8858;52.308;20.994;2023-04-23T01:12:02;21.90;;;16.80;;
17482;SDS011;8858;52.308;20.994;2023-04-23T01:14:33;22.63;;;16.23;;
17482;SDS011;8858;52.308;20.994;2023-04-23T01:17:03;22.60;;;16.23;;
17482;SDS011;8858;52.308;20.994;2023-04-23T01:19:34;20.13;;;15.30;;
17482;SDS011;8858;52.308;20.994;2023-04-23T01:22:07;19.40;;;15.57;;
17482;SDS011;8858;52.308;20.994;2023-04-23T01:24:36;19.07;;;15.20;;
17482;SDS011;8858;52.308;20.994;2023-04-23T01:27:07;20.80;;;16.17;;
17482;SDS011;8858;52.308;20.994;2023-04-23T01:29:35;19.93;;;15.50;;
17482;SDS011;8858;52.308;20.994;2023-04-23T01:32:08;22.63;;;16.70;;
17482;SDS011;8858;52.308;20.994;2023-04-23T01:34:37;21.07;;;15.00;;
17482;SDS011;8858;52.308;20.994;2023-04-23T01:37:09;18.93;;;15.17;;
17482;SDS011;8858;52.308;20.994;2023-04-23T01:39:37;22.37;;;15.77;;
17482;SDS011;8858;52.308;20.994;2023-04-23T01:42:07;21.00;;;15.57;;
17482;SDS011;8858;52.308;20.994;2023-04-23T01:44:37;21.00;;;15.73;;
17482;SDS011;8858;52.308;20.994;2023-04-23T01:47:06;21.10;;;15.10;;
17482;SDS011;8858;52.308;20.994;2023-04-23T01:49:34;18.60;;;15.13;;
17482;SDS011;8858;52.308;20.994;2023-04-23T01:52:03;21.10;;;15.50;;
17482;SDS011;8858;52.308;20.994;2023-04-23T01:54:32;19.23;;;15.43;;
17482;SDS011;8858;52.308;20.994;2023-04-23T01:57:04;22.07;;;15.07;;
17482;SDS011;8858;52.308;20.994;2023-04-23T01:59:33;20.43;;;15.37;;
17482;SDS011;8858;52.308;20.994;2023-04-23T02:02:02;20.07;;;14.47;;
17482;SDS011;8858;52.308;20.994;2023-04-23T02:04:30;19.20;;;15.33;;
17482;SDS011;8858;52.308;20.994;2023-04-23T02:07:00;20.87;;;14.93;;
17482;SDS011;8858;52.308;20.994;2023-04-23T02:09:33;22.27;;;15.03;;
17482;SDS011;8858;52.308;20.994;2023-04-23T02:12:03;18.77;;;15.03;;
17482;SDS011;8858;52.308;20.994;2023-04-23T02:14:32;21.30;;;15.67;;
17482;SDS011;8858;52.308;20.994;2023-04-23T02:17:01;18.57;;;14.93;;
17482;SDS011;8858;52.308;20.994;2023-04-23T02:19:29;19.87;;;14.57;;
17482;SDS011;8858;52.308;20.994;2023-04-23T02:22:01;18.60;;;14.77;;
17482;SDS011;8858;52.308;20.994;2023-04-23T02:24:30;22.90;;;14.57;;
17482;SDS011;8858;52.308;20.994;2023-04-23T02:26:59;20.40;;;15.27;;
17482;SDS011;8858;52.308;20.994;2023-04-23T02:29:28;22.23;;;15.10;;
17482;SDS011;8858;52.308;20.994;2023-04-23T02:31:56;19.33;;;14.87;;
17482;SDS011;8858;52.308;20.994;2023-04-23T02:34:28;19.33;;;15.17;;
17482;SDS011;8858;52.308;20.994;2023-04-23T02:36:56;21.33;;;14.93;;
17482;SDS011;8858;52.308;20.994;2023-04-23T02:39:25;19.93;;;15.20;;
17482;SDS011;8858;52.308;20.994;2023-04-23T02:41:53;17.10;;;14.50;;
17482;SDS011;8858;52.308;20.994;2023-04-23T02:44:23;19.63;;;15.20;;
17482;SDS011;8858;52.308;20.994;2023-04-23T02:46:51;20.00;;;15.53;;
17482;SDS011;8858;52.308;20.994;2023-04-23T02:49:20;19.17;;;15.13;;
17482;SDS011;8858;52.308;20.994;2023-04-23T02:51:49;19.13;;;16.07;;
17482;SDS011;8858;52.308;20.994;2023-04-23T02:54:17;20.70;;;14.87;;
17482;SDS011;8858;52.308;20.994;2023-04-23T02:56:46;17.77;;;14.67;;
17482;SDS011;8858;52.308;20.994;2023-04-23T02:59:14;21.77;;;15.47;;
17482;SDS011;8858;52.308;20.994;2023-04-23T03:01:44;17.73;;;14.63;;
17482;SDS011;8858;52.308;20.994;2023-04-23T03:04:13;18.77;;;14.93;;
17482;SDS011;8858;52.308;20.994;2023-04-23T03:07:05;20.03;;;15.10;;
17482;SDS011;8858;52.308;20.994;2023-04-23T03:09:34;19.10;;;13.77;;
17482;SDS011;8858;52.308;20.994;2023-04-23T03:12:03;18.33;;;14.73;;
17482;SDS011;8858;52.308;20.994;2023-04-23T03:14:31;18.23;;;14.47;;
17482;SDS011;8858;52.308;20.994;2023-04-23T03:17:03;17.83;;;14.50;;
17482;SDS011;8858;52.308;20.994;2023-04-23T03:19:33;20.07;;;14.50;;
17482;SDS011;8858;52.308;20.994;2023-04-23T03:22:01;18.90;;;15.13;;
17482;SDS011;8858;52.308;20.994;2023-04-23T03:24:32;21.37;;;14.40;;
17482;SDS011;8858;52.308;20.994;2023-04-23T03:27:01;18.03;;;14.03;;
17482;SDS011;8858;52.308;20.994;2023-04-23T03:29:29;19.90;;;14.80;;
17482;SDS011;8858;52.308;20.994;2023-04-23T03:31:57;18.40;;;14.43;;
17482;SDS011;8858;52.308;20.994;2023-04-23T03:34:27;18.00;;;14.27;;
17482;SDS011;8858;52.308;20.994;2023-04-23T03:36:56;19.50;;;14.57;;
17482;SDS011;8858;52.308;20.994;2023-04-23T03:39:24;18.93;;;14.50;;
17482;SDS011;8858;52.308;20.994;2023-04-23T03:41:56;17.73;;;14.53;;
17482;SDS011;8858;52.308;20.994;2023-04-23T03:44:27;18.73;;;14.43;;
17482;SDS011;8858;52.308;20.994;2023-04-23T03:46:56;24.00;;;14.77;;
17482;SDS011;8858;52.308;20.994;2023-04-23T03:49:25;21.73;;;15.00;;
17482;SDS011;8858;52.308;20.994;2023-04-23T03:51:56;18.87;;;14.73;;
17482;SDS011;8858;52.308;20.994;2023-04-23T03:54:27;22.70;;;14.97;;
17482;SDS011;8858;52.308;20.994;2023-04-23T03:57:03;17.60;;;14.40;;
17482;SDS011;8858;52.308;20.994;2023-04-23T03:59:54;20.93;;;14.73;;
17482;SDS011;8858;52.308;20.994;2023-04-23T04:02:23;18.87;;;14.70;;
17482;SDS011;8858;52.308;20.994;2023-04-23T04:04:52;20.00;;;14.50;;
17482;SDS011;8858;52.308;20.994;2023-04-23T04:07:24;17.13;;;14.57;;
17482;SDS011;8858;52.308;20.994;2023-04-23T04:09:56;16.93;;;14.27;;
17482;SDS011;8858;52.308;20.994;2023-04-23T04:12:25;17.30;;;14.03;;
17482;SDS011;8858;52.308;20.994;2023-04-23T04:14:57;18.23;;;14.13;;
17482;SDS011;8858;52.308;20.994;2023-04-23T04:17:26;18.97;;;14.57;;
17482;SDS011;8858;52.308;20.994;2023-04-23T04:19:55;19.60;;;14.07;;
17482;SDS011;8858;52.308;20.994;2023-04-23T04:22:25;18.87;;;14.00;;
17482;SDS011;8858;52.308;20.994;2023-04-23T04:24:54;20.53;;;14.83;;
17482;SDS011;8858;52.308;20.994;2023-04-23T04:27:26;20.33;;;13.40;;
17482;SDS011;8858;52.308;20.994;2023-04-23T04:29:55;16.57;;;14.67;;
17482;SDS011;8858;52.308;20.994;2023-04-23T04:32:23;17.83;;;13.87;;
17482;SDS011;8858;52.308;20.994;2023-04-23T04:34:52;19.90;;;15.00;;
17482;SDS011;8858;52.308;20.994;2023-04-23T04:37:20;19.73;;;13.83;;
17482;SDS011;8858;52.308;20.994;2023-04-23T04:39:50;18.13;;;13.50;;
17482;SDS011;8858;52.308;20.994;2023-04-23T04:42:20;18.07;;;14.17;;
17482;SDS011;8858;52.308;20.994;2023-04-23T04:44:48;18.80;;;14.07;;
17482;SDS011;8858;52.308;20.994;2023-04-23T04:47:20;17.90;;;13.90;;
17482;SDS011;8858;52.308;20.994;2023-04-23T04:49:48;17.87;;;13.33;;
17482;SDS011;8858;52.308;20.994;2023-04-23T04:52:17;16.10;;;12.80;;
17482;SDS011;8858;52.308;20.994;2023-04-23T04:54:46;16.90;;;13.07;;
17482;SDS011;8858;52.308;20.994;2023-04-23T04:57:15;20.13;;;13.80;;
17482;SDS011;8858;52.308;20.994;2023-04-23T04:59:44;21.00;;;13.57;;
17482;SDS011;8858;52.308;20.994;2023-04-23T05:02:12;19.90;;;13.53;;
17482;SDS011;8858;52.308;20.994;2023-04-23T05:04:41;17.03;;;12.83;;
17482;SDS011;8858;52.308;20.994;2023-04-23T05:07:10;15.47;;;12.57;;
17482;SDS011;8858;52.308;20.994;2023-04-23T05:09:38;15.93;;;12.73;;
17482;SDS011;8858;52.308;20.994;2023-04-23T05:12:10;19.67;;;12.20;;
17482;SDS011;8858;52.308;20.994;2023-04-23T05:14:40;16.07;;;11.97;;
17482;SDS011;8858;52.308;20.994;2023-04-23T05:17:09;15.03;;;12.13;;
17482;SDS011;8858;52.308;20.994;2023-04-23T05:19:38;17.93;;;12.13;;
17482;SDS011;8858;52.308;20.994;2023-04-23T05:22:06;15.40;;;12.47;;
17482;SDS011;8858;52.308;20.994;2023-04-23T05:24:36;20.97;;;11.53;;
17482;SDS011;8858;52.308;20.994;2023-04-23T05:27:04;14.60;;;11.67;;
17482;SDS011;8858;52.308;20.994;2023-04-23T05:29:33;20.07;;;12.23;;
17482;SDS011;8858;52.308;20.994;2023-04-23T05:32:02;13.87;;;11.97;;
17482;SDS011;8858;52.308;20.994;2023-04-23T05:34:31;16.20;;;11.23;;
17482;SDS011;8858;52.308;20.994;2023-04-23T05:37:00;14.87;;;11.40;;
17482;SDS011;8858;52.308;20.994;2023-04-23T05:39:29;15.10;;;11.13;;
17482;SDS011;8858;52.308;20.994;2023-04-23T05:41:57;15.50;;;11.93;;
17482;SDS011;8858;52.308;20.994;2023-04-23T05:44:26;20.23;;;12.10;;
17482;SDS011;8858;52.308;20.994;2023-04-23T05:46:55;18.23;;;11.80;;
17482;SDS011;8858;52.308;20.994;2023-04-23T05:49:25;11.60;;;10.20;;
17482;SDS011;8858;52.308;20.994;2023-04-23T05:51:53;16.70;;;11.27;;
17482;SDS011;8858;52.308;20.994;2023-04-23T05:54:22;24.67;;;10.77;;
17482;SDS011;8858;52.308;20.994;2023-04-23T05:56:50;17.87;;;11.00;;
17482;SDS011;8858;52.308;20.994;2023-04-23T05:59:20;13.33;;;10.17;;
17482;SDS011;8858;52.308;20.994;2023-04-23T06:01:48;12.13;;;10.13;;
17482;SDS011;8858;52.308;20.994;2023-04-23T06:04:20;14.20;;;10.67;;
17482;SDS011;8858;52.308;20.994;2023-04-23T06:06:50;13.70;;;10.33;;
17482;SDS011;8858;52.308;20.994;2023-04-23T06:09:20;13.43;;;9.60;;
17482;SDS011;8858;52.308;20.994;2023-04-23T06:11:48;11.80;;;9.90;;
17482;SDS011;8858;52.308;20.994;2023-04-23T06:14:18;12.73;;;9.23;;
17482;SDS011;8858;52.308;20.994;2023-04-23T06:16:50;15.60;;;10.00;;
17482;SDS011;8858;52.308;20.994;2023-04-23T06:19:19;13.37;;;9.50;;
17482;SDS011;8858;52.308;20.994;2023-04-23T06:21:51;14.17;;;10.17;;
17482;SDS011;8858;52.308;20.994;2023-04-23T06:24:20;10.53;;;9.43;;
17482;SDS011;8858;52.308;20.994;2023-04-23T06:26:48;13.47;;;9.50;;
17482;SDS011;8858;52.308;20.994;2023-04-23T06:29:20;16.53;;;9.57;;
17482;SDS011;8858;52.308;20.994;2023-04-23T06:32:00;13.53;;;9.60;;
17482;SDS011;8858;52.308;20.994;2023-04-23T06:34:31;15.57;;;9.00;;
17482;SDS011;8858;52.308;20.994;2023-04-23T06:37:00;13.40;;;8.97;;
17482;SDS011;8858;52.308;20.994;2023-04-23T06:39:29;12.00;;;8.30;;
17482;SDS011;8858;52.308;20.994;2023-04-23T06:41:57;12.83;;;8.63;;
17482;SDS011;8858;52.308;20.994;2023-04-23T06:44:37;12.80;;;8.20;;
17482;SDS011;8858;52.308;20.994;2023-04-23T06:47:05;8.80;;;7.90;;
17482;SDS011;8858;52.308;20.994;2023-04-23T06:49:34;12.43;;;8.20;;
17482;SDS011;8858;52.308;20.994;2023-04-23T06:52:05;12.27;;;8.20;;
17482;SDS011;8858;52.308;20.994;2023-04-23T06:54:34;11.97;;;7.80;;
17482;SDS011;8858;52.308;20.994;2023-04-23T06:57:03;14.03;;;8.00;;
17482;SDS011;8858;52.308;20.994;2023-04-23T06:59:31;11.60;;;8.37;;
17482;SDS011;8858;52.308;20.994;2023-04-23T07:02:00;11.97;;;7.60;;
17482;SDS011;8858;52.308;20.994;2023-04-23T07:04:28;10.07;;;7.73;;
17482;SDS011;8858;52.308;20.994;2023-04-23T07:06:56;16.80;;;7.60;;
17482;SDS011;8858;52.308;20.994;2023-04-23T07:09:30;11.03;;;7.17;;
17482;SDS011;8858;52.308;20.994;2023-04-23T07:11:58;9.97;;;7.43;;
17482;SDS011;8858;52.308;20.994;2023-04-23T07:14:27;11.33;;;6.97;;
17482;SDS011;8858;52.308;20.994;2023-04-23T07:16:55;11.50;;;7.40;;
17482;SDS011;8858;52.308;20.994;2023-04-23T07:19:23;8.97;;;6.37;;
17482;SDS011;8858;52.308;20.994;2023-04-23T07:21:52;6.50;;;5.80;;
17482;SDS011;8858;52.308;20.994;2023-04-23T07:24:23;11.20;;;6.87;;
17482;SDS011;8858;52.308;20.994;2023-04-23T07:26:54;8.37;;;6.47;;
17482;SDS011;8858;52.308;20.994;2023-04-23T07:29:22;8.30;;;6.73;;
17482;SDS011;8858;52.308;20.994;2023-04-23T07:31:50;8.40;;;6.60;;
17482;SDS011;8858;52.308;20.994;2023-04-23T07:34:18;10.60;;;6.10;;
17482;SDS011;8858;52.308;20.994;2023-04-23T07:36:50;7.30;;;6.17;;
17482;SDS011;8858;52.308;20.994;2023-04-23T07:39:18;7.60;;;6.73;;
17482;SDS011;8858;52.308;20.994;2023-04-23T07:41:46;9.63;;;6.57;;
17482;SDS011;8858;52.308;20.994;2023-04-23T07:44:16;9.33;;;7.90;;
17482;SDS011;8858;52.308;20.994;2023-04-23T07:46:44;10.27;;;8.27;;
17482;SDS011;8858;52.308;20.994;2023-04-23T07:49:13;7.40;;;6.40;;
17482;SDS011;8858;52.308;20.994;2023-04-23T07:51:41;10.27;;;6.40;;
17482;SDS011;8858;52.308;20.994;2023-04-23T07:54:09;7.97;;;5.90;;
17482;SDS011;8858;52.308;20.994;2023-04-23T07:56:39;8.37;;;5.57;;
17482;SDS011;8858;52.308;20.994;2023-04-23T07:59:09;8.90;;;5.80;;
17482;SDS011;8858;52.308;20.994;2023-04-23T08:01:38;6.73;;;5.77;;
17482;SDS011;8858;52.308;20.994;2023-04-23T08:04:07;9.27;;;6.10;;
17482;SDS011;8858;52.308;20.994;2023-04-23T08:06:36;9.23;;;5.90;;
17482;SDS011;8858;52.308;20.994;2023-04-23T08:09:07;8.63;;;5.60;;
17482;SDS011;8858;52.308;20.994;2023-04-23T08:11:35;7.83;;;5.77;;
17482;SDS011;8858;52.308;20.994;2023-04-23T08:14:04;8.10;;;5.77;;
17482;SDS011;8858;52.308;20.994;2023-04-23T08:16:32;6.10;;;5.07;;
17482;SDS011;8858;52.308;20.994;2023-04-23T08:19:05;6.37;;;5.20;;
17482;SDS011;8858;52.308;20.994;2023-04-23T08:21:37;6.33;;;5.13;;
17482;SDS011;8858;52.308;20.994;2023-04-23T08:24:05;7.07;;;5.83;;
17482;SDS011;8858;52.308;20.994;2023-04-23T08:26:34;8.33;;;4.97;;
17482;SDS011;8858;52.308;20.994;2023-04-23T08:29:04;8.97;;;5.03;;
17482;SDS011;8858;52.308;20.994;2023-04-23T08:31:36;5.10;;;4.60;;
17482;SDS011;8858;52.308;20.994;2023-04-23T08:34:06;6.97;;;4.87;;
17482;SDS011;8858;52.308;20.994;2023-04-23T08:36:35;6.18;;;4.80;;
17482;SDS011;8858;52.308;20.994;2023-04-23T08:39:03;7.28;;;4.95;;
17482;SDS011;8858;52.308;20.994;2023-04-23T08:41:32;4.93;;;4.45;;
17482;SDS011;8858;52.308;20.994;2023-04-23T08:44:07;4.82;;;4.10;;
17482;SDS011;8858;52.308;20.994;2023-04-23T08:46:41;6.03;;;4.20;;
17482;SDS011;8858;52.308;20.994;2023-04-23T08:49:16;5.55;;;4.10;;
17482;SDS011;8858;52.308;20.994;2023-04-23T08:51:47;6.40;;;4.20;;
17482;SDS011;8858;52.308;20.994;2023-04-23T08:54:21;5.23;;;4.10;;
17482;SDS011;8858;52.308;20.994;2023-04-23T08:56:54;7.30;;;6.15;;
17482;SDS011;8858;52.308;20.994;2023-04-23T08:59:24;5.22;;;4.32;;
17482;SDS011;8858;52.308;20.994;2023-04-23T09:01:54;8.98;;;3.70;;
17482;SDS011;8858;52.308;20.994;2023-04-23T09:04:24;7.32;;;4.90;;
17482;SDS011;8858;52.308;20.994;2023-04-23T09:06:54;5.80;;;4.63;;
17482;SDS011;8858;52.308;20.994;2023-04-23T09:09:24;6.10;;;3.95;;
17482;SDS011;8858;52.308;20.994;2023-04-23T09:11:57;7.57;;;4.65;;
17482;SDS011;8858;52.308;20.994;2023-04-23T09:14:25;3.78;;;3.38;;
17482;SDS011;8858;52.308;20.994;2023-04-23T09:16:54;4.55;;;3.00;;
17482;SDS011;8858;52.308;20.994;2023-04-23T09:19:25;4.22;;;3.03;;
17482;SDS011;8858;52.308;20.994;2023-04-23T09:21:54;6.55;;;3.15;;
17482;SDS011;8858;52.308;20.994;2023-04-23T09:24:25;5.32;;;3.67;;
17482;SDS011;8858;52.308;20.994;2023-04-23T09:26:56;8.68;;;3.80;;
17482;SDS011;8858;52.308;20.994;2023-04-23T09:29:25;6.30;;;3.20;;
17482;SDS011;8858;52.308;20.994;2023-04-23T09:31:54;5.68;;;4.03;;
17482;SDS011;8858;52.308;20.994;2023-04-23T09:34:35;6.78;;;3.45;;
17482;SDS011;8858;52.308;20.994;2023-04-23T09:37:07;7.78;;;4.63;;
17482;SDS011;8858;52.308;20.994;2023-04-23T09:39:36;4.65;;;3.42;;
17482;SDS011;8858;52.308;20.994;2023-04-23T09:42:07;6.00;;;3.67;;
17482;SDS011;8858;52.308;20.994;2023-04-23T09:44:38;4.50;;;3.35;;
17482;SDS011;8858;52.308;20.994;2023-04-23T09:47:10;6.00;;;3.60;;
17482;SDS011;8858;52.308;20.994;2023-04-23T09:49:45;4.13;;;3.13;;
17482;SDS011;8858;52.308;20.994;2023-04-23T09:52:18;4.32;;;3.38;;
17482;SDS011;8858;52.308;20.994;2023-04-23T09:54:48;7.65;;;4.70;;
17482;SDS011;8858;52.308;20.994;2023-04-23T09:57:16;4.95;;;3.58;;
17482;SDS011;8858;52.308;20.994;2023-04-23T09:59:44;4.35;;;3.42;;
17482;SDS011;8858;52.308;20.994;2023-04-23T10:02:25;7.88;;;3.30;;
17482;SDS011;8858;52.308;20.994;2023-04-23T10:05:00;5.10;;;3.55;;
17482;SDS011;8858;52.308;20.994;2023-04-23T10:07:49;5.68;;;3.17;;
17482;SDS011;8858;52.308;20.994;2023-04-23T10:10:18;3.38;;;3.08;;
17482;SDS011;8858;52.308;20.994;2023-04-23T10:15:49;4.38;;;3.17;;
17482;SDS011;8858;52.308;20.994;2023-04-23T10:18:18;4.72;;;2.95;;
17482;SDS011;8858;52.308;20.994;2023-04-23T10:20:49;5.57;;;3.13;;
17482;SDS011;8858;52.308;20.994;2023-04-23T10:23:19;3.33;;;3.03;;
17482;SDS011;8858;52.308;20.994;2023-04-23T10:25:50;3.38;;;3.05;;
17482;SDS011;8858;52.308;20.994;2023-04-23T10:28:22;4.78;;;3.08;;
17482;SDS011;8858;52.308;20.994;2023-04-23T10:30:57;6.05;;;3.00;;
17482;SDS011;8858;52.308;20.994;2023-04-23T10:33:27;3.85;;;2.97;;
17482;SDS011;8858;52.308;20.994;2023-04-23T10:36:09;6.35;;;2.88;;
17482;SDS011;8858;52.308;20.994;2023-04-23T10:38:38;6.97;;;2.83;;
17482;SDS011;8858;52.308;20.994;2023-04-23T10:41:24;6.18;;;3.35;;
17482;SDS011;8858;52.308;20.994;2023-04-23T10:43:56;3.45;;;3.15;;
17482;SDS011;8858;52.308;20.994;2023-04-23T10:46:27;3.50;;;3.20;;
17482;SDS011;8858;52.308;20.994;2023-04-23T10:49:05;9.13;;;3.50;;
17482;SDS011;8858;52.308;20.994;2023-04-23T10:51:37;4.55;;;2.50;;
17482;SDS011;8858;52.308;20.994;2023-04-23T10:54:12;4.18;;;3.00;;
17482;SDS011;8858;52.308;20.994;2023-04-23T10:56:42;5.53;;;3.20;;
17482;SDS011;8858;52.308;20.994;2023-04-23T10:59:17;4.30;;;2.80;;
17482;SDS011;8858;52.308;20.994;2023-04-23T11:01:46;10.30;;;3.83;;
17482;SDS011;8858;52.308;20.994;2023-04-23T11:04:20;5.78;;;3.85;;
17482;SDS011;8858;52.308;20.994;2023-04-23T11:06:52;7.18;;;3.20;;
17482;SDS011;8858;52.308;20.994;2023-04-23T11:09:35;3.22;;;2.80;;
17482;SDS011;8858;52.308;20.994;2023-04-23T11:12:06;2.70;;;2.50;;
17482;SDS011;8858;52.308;20.994;2023-04-23T11:14:41;4.35;;;2.78;;
17482;SDS011;8858;52.308;20.994;2023-04-23T11:17:13;3.08;;;2.50;;
17482;SDS011;8858;52.308;20.994;2023-04-23T11:22:37;3.30;;;3.00;;
17482;SDS011;8858;52.308;20.994;2023-04-23T11:25:07;3.55;;;3.25;;
17482;SDS011;8858;52.308;20.994;2023-04-23T11:27:38;6.47;;;3.00;;
17482;SDS011;8858;52.308;20.994;2023-04-23T11:30:10;6.63;;;4.32;;
17482;SDS011;8858;52.308;20.994;2023-04-23T11:32:40;6.18;;;3.58;;
17482;SDS011;8858;52.308;20.994;2023-04-23T11:35:13;3.92;;;3.00;;
17482;SDS011;8858;52.308;20.994;2023-04-23T11:37:43;4.07;;;2.72;;
17482;SDS011;8858;52.308;20.994;2023-04-23T11:40:14;3.80;;;2.67;;
17482;SDS011;8858;52.308;20.994;2023-04-23T11:42:45;3.08;;;2.50;;
17482;SDS011;8858;52.308;20.994;2023-04-23T11:45:16;3.08;;;2.47;;
17482;SDS011;8858;52.308;20.994;2023-04-23T11:47:46;3.67;;;2.45;;
17482;SDS011;8858;52.308;20.994;2023-04-23T11:50:17;5.03;;;3.05;;
17482;SDS011;8858;52.308;20.994;2023-04-23T11:52:51;5.47;;;3.28;;
17482;SDS011;8858;52.308;20.994;2023-04-23T11:55:20;8.00;;;3.00;;
17482;SDS011;8858;52.308;20.994;2023-04-23T11:57:50;13.15;;;2.80;;
17482;SDS011;8858;52.308;20.994;2023-04-23T12:00:19;5.50;;;2.90;;
17482;SDS011;8858;52.308;20.994;2023-04-23T12:02:49;6.18;;;4.82;;
17482;SDS011;8858;52.308;20.994;2023-04-23T12:05:19;2.90;;;2.70;;
17482;SDS011;8858;52.308;20.994;2023-04-23T12:07:49;3.83;;;3.00;;
17482;SDS011;8858;52.308;20.994;2023-04-23T12:10:19;5.00;;;2.72;;
17482;SDS011;8858;52.308;20.994;2023-04-23T12:12:48;4.63;;;2.60;;
17482;SDS011;8858;52.308;20.994;2023-04-23T12:15:19;3.42;;;2.70;;
17482;SDS011;8858;52.308;20.994;2023-04-23T12:17:48;3.17;;;2.78;;
17482;SDS011;8858;52.308;20.994;2023-04-23T12:20:18;5.93;;;2.80;;
17482;SDS011;8858;52.308;20.994;2023-04-23T12:22:52;5.47;;;3.05;;
17482;SDS011;8858;52.308;20.994;2023-04-23T12:25:21;4.57;;;3.00;;
17482;SDS011;8858;52.308;20.994;2023-04-23T12:27:50;2.95;;;2.65;;
17482;SDS011;8858;52.308;20.994;2023-04-23T12:30:18;3.03;;;2.65;;
17482;SDS011;8858;52.308;20.994;2023-04-23T12:32:47;2.75;;;2.40;;
17482;SDS011;8858;52.308;20.994;2023-04-23T12:35:16;5.53;;;2.60;;
17482;SDS011;8858;52.308;20.994;2023-04-23T12:37:44;5.50;;;2.72;;
17482;SDS011;8858;52.308;20.994;2023-04-23T12:40:15;2.75;;;2.55;;
17482;SDS011;8858;52.308;20.994;2023-04-23T12:42:45;10.07;;;2.78;;
17482;SDS011;8858;52.308;20.994;2023-04-23T12:45:13;4.20;;;2.80;;
17482;SDS011;8858;52.308;20.994;2023-04-23T12:47:41;3.13;;;2.83;;
17482;SDS011;8858;52.308;20.994;2023-04-23T12:50:10;3.35;;;2.55;;
17482;SDS011;8858;52.308;20.994;2023-04-23T12:52:41;4.30;;;2.70;;
17482;SDS011;8858;52.308;20.994;2023-04-23T12:55:11;2.53;;;2.28;;
17482;SDS011;8858;52.308;20.994;2023-04-23T12:57:41;3.80;;;3.28;;
17482;SDS011;8858;52.308;20.994;2023-04-23T13:00:09;3.72;;;2.67;;
17482;SDS011;8858;52.308;20.994;2023-04-23T13:02:38;3.35;;;2.63;;
17482;SDS011;8858;52.308;20.994;2023-04-23T13:05:10;3.63;;;2.40;;
17482;SDS011;8858;52.308;20.994;2023-04-23T13:07:38;5.25;;;3.10;;
17482;SDS011;8858;52.308;20.994;2023-04-23T13:10:06;3.65;;;2.50;;
17482;SDS011;8858;52.308;20.994;2023-04-23T13:12:35;3.25;;;2.95;;
17482;SDS011;8858;52.308;20.994;2023-04-23T13:15:06;2.92;;;2.72;;
17482;SDS011;8858;52.308;20.994;2023-04-23T13:17:37;4.07;;;2.58;;
17482;SDS011;8858;52.308;20.994;2023-04-23T13:20:06;2.97;;;2.65;;
17482;SDS011;8858;52.308;20.994;2023-04-23T13:22:35;3.03;;;2.70;;
17482;SDS011;8858;52.308;20.994;2023-04-23T13:25:03;2.67;;;2.45;;
17482;SDS011;8858;52.308;20.994;2023-04-23T13:27:32;2.80;;;2.60;;
17482;SDS011;8858;52.308;20.994;2023-04-23T13:30:00;3.47;;;2.33;;
17482;SDS011;8858;52.308;20.994;2023-04-23T13:32:32;5.35;;;2.75;;
17482;SDS011;8858;52.308;20.994;2023-04-23T13:35:01;22.15;;;20.08;;
17482;SDS011;8858;52.308;20.994;2023-04-23T13:37:30;5.47;;;3.35;;
17482;SDS011;8858;52.308;20.994;2023-04-23T13:40:01;5.18;;;2.78;;
17482;SDS011;8858;52.308;20.994;2023-04-23T13:42:32;4.20;;;3.10;;
17482;SDS011;8858;52.308;20.994;2023-04-23T13:45:00;3.50;;;2.70;;
17482;SDS011;8858;52.308;20.994;2023-04-23T13:47:33;4.63;;;2.67;;
17482;SDS011;8858;52.308;20.994;2023-04-23T13:50:02;6.00;;;2.55;;
17482;SDS011;8858;52.308;20.994;2023-04-23T13:52:32;3.92;;;2.30;;
17482;SDS011;8858;52.308;20.994;2023-04-23T13:55:02;3.05;;;2.70;;
17482;SDS011;8858;52.308;20.994;2023-04-23T13:57:33;3.15;;;2.53;;
17482;SDS011;8858;52.308;20.994;2023-04-23T14:00:01;3.00;;;2.80;;
17482;SDS011;8858;52.308;20.994;2023-04-23T14:02:29;2.72;;;2.53;;
17482;SDS011;8858;52.308;20.994;2023-04-23T14:04:59;8.52;;;7.75;;
17482;SDS011;8858;52.308;20.994;2023-04-23T14:07:30;9.85;;;9.05;;
17482;SDS011;8858;52.308;20.994;2023-04-23T14:09:58;3.10;;;2.80;;
17482;SDS011;8858;52.308;20.994;2023-04-23T14:12:26;3.28;;;2.92;;
17482;SDS011;8858;52.308;20.994;2023-04-23T14:14:55;3.95;;;2.80;;
17482;SDS011;8858;52.308;20.994;2023-04-23T14:17:24;3.20;;;2.65;;
17482;SDS011;8858;52.308;20.994;2023-04-23T14:19:52;2.97;;;2.78;;
17482;SDS011;8858;52.308;20.994;2023-04-23T14:22:25;3.55;;;2.83;;
17482;SDS011;8858;52.308;20.994;2023-04-23T14:24:54;3.67;;;2.50;;
17482;SDS011;8858;52.308;20.994;2023-04-23T14:27:33;2.92;;;2.40;;
17482;SDS011;8858;52.308;20.994;2023-04-23T14:30:12;2.97;;;2.78;;
17482;SDS011;8858;52.308;20.994;2023-04-23T14:32:41;6.00;;;2.75;;
17482;SDS011;8858;52.308;20.994;2023-04-23T14:35:15;4.70;;;2.60;;
17482;SDS011;8858;52.308;20.994;2023-04-23T14:38:09;2.80;;;2.30;;
17482;SDS011;8858;52.308;20.994;2023-04-23T14:40:37;3.67;;;2.72;;
17482;SDS011;8858;52.308;20.994;2023-04-23T14:43:05;7.15;;;6.10;;
17482;SDS011;8858;52.308;20.994;2023-04-23T14:45:41;4.43;;;2.72;;
17482;SDS011;8858;52.308;20.994;2023-04-23T14:48:09;5.72;;;5.22;;
17482;SDS011;8858;52.308;20.994;2023-04-23T14:50:37;4.00;;;3.70;;
17482;SDS011;8858;52.308;20.994;2023-04-23T14:53:06;4.28;;;2.60;;
17482;SDS011;8858;52.308;20.994;2023-04-23T14:55:37;6.47;;;3.42;;
17482;SDS011;8858;52.308;20.994;2023-04-23T14:58:08;4.63;;;2.92;;
17482;SDS011;8858;52.308;20.994;2023-04-23T15:00:36;2.90;;;2.63;;